sensor_id;sensor_type;location;lat;lon;timestamp;P1;durP1;ratioP1;P2;durP2;ratioP2
46000;SDS011;72226;48.272;11.180;2024-03-08T00:00:31;29.55;;;18.50;;
46000;SDS011;72226;48.272;11.180;2024-03-08T00:02:58;33.22;;;19.48;;
46000;SDS011;72226;48.272;11.180;2024-03-08T00:05:23;28.10;;;18.33;;
46000;SDS011;72226;48.272;11.180;2024-03-08T00:07:49;26.30;;;17.90;;
46000;SDS011;72226;48.272;11.180;2024-03-08T00:10:14;25.08;;;16.25;;
46000;SDS011;72226;48.272;11.180;2024-03-08T00:12:40;26.20;;;19.08;;
46000;SDS011;72226;48.272;11.180;2024-03-08T00:15:11;27.85;;;18.90;;
46000;SDS011;72226;48.272;11.180;2024-03-08T00:17:42;28.05;;;16.73;;
46000;SDS011;72226;48.272;11.180;2024-03-08T00:20:07;22.95;;;17.85;;
46000;SDS011;72226;48.272;11.180;2024-03-08T00:22:36;29.20;;;17.95;;
46000;SDS011;72226;48.272;11.180;2024-03-08T00:25:02;30.98;;;18.75;;
46000;SDS011;72226;48.272;11.180;2024-03-08T00:27:27;20.52;;;16.85;;
46000;SDS011;72226;48.272;11.180;2024-03-08T00:29:53;29.52;;;17.48;;
46000;SDS011;72226;48.272;11.180;2024-03-08T00:32:19;30.13;;;17.73;;
46000;SDS011;72226;48.272;11.180;2024-03-08T00:34:44;27.05;;;17.35;;
46000;SDS011;72226;48.272;11.180;2024-03-08T00:37:09;26.58;;;16.63;;
46000;SDS011;72226;48.272;11.180;2024-03-08T00:39:35;29.80;;;18.27;;
46000;SDS011;72226;48.272;11.180;2024-03-08T00:42:00;26.23;;;17.98;;
46000;SDS011;72226;48.272;11.180;2024-03-08T00:44:25;24.52;;;17.88;;
46000;SDS011;72226;48.272;11.180;2024-03-08T00:46:50;24.60;;;17.13;;
46000;SDS011;72226;48.272;11.180;2024-03-08T00:49:16;26.92;;;17.63;;
46000;SDS011;72226;48.272;11.180;2024-03-08T00:51:41;25.42;;;18.10;;
46000;SDS011;72226;48.272;11.180;2024-03-08T00:54:07;28.67;;;18.83;;
46000;SDS011;72226;48.272;11.180;2024-03-08T00:56:32;24.83;;;17.20;;
46000;SDS011;72226;48.272;11.180;2024-03-08T00:58:58;25.77;;;18.20;;
46000;SDS011;72226;48.272;11.180;2024-03-08T01:01:25;26.48;;;17.15;;
46000;SDS011;72226;48.272;11.180;2024-03-08T01:03:51;24.50;;;16.40;;
46000;SDS011;72226;48.272;11.180;2024-03-08T01:06:17;28.70;;;17.75;;
46000;SDS011;72226;48.272;11.180;2024-03-08T01:08:42;24.88;;;16.40;;
46000;SDS011;72226;48.272;11.180;2024-03-08T01:11:08;25.08;;;16.25;;
46000;SDS011;72226;48.272;11.180;2024-03-08T01:13:34;22.85;;;17.38;;
46000;SDS011;72226;48.272;11.180;2024-03-08T01:15:59;21.75;;;16.02;;
46000;SDS011;72226;48.272;11.180;2024-03-08T01:18:24;24.63;;;18.40;;
46000;SDS011;72226;48.272;11.180;2024-03-08T01:20:49;27.92;;;17.52;;
46000;SDS011;72226;48.272;11.180;2024-03-08T01:23:15;23.95;;;16.08;;
46000;SDS011;72226;48.272;11.180;2024-03-08T01:25:40;25.70;;;16.60;;
46000;SDS011;72226;48.272;11.180;2024-03-08T01:28:06;26.98;;;17.30;;
46000;SDS011;72226;48.272;11.180;2024-03-08T01:30:31;25.65;;;18.58;;
46000;SDS011;72226;48.272;11.180;2024-03-08T01:33:00;24.23;;;17.25;;
46000;SDS011;72226;48.272;11.180;2024-03-08T01:35:25;30.92;;;18.60;;
46000;SDS011;72226;48.272;11.180;2024-03-08T01:37:51;28.10;;;16.92;;
46000;SDS011;72226;48.272;11.180;2024-03-08T01:40:16;27.38;;;18.25;;
46000;SDS011;72226;48.272;11.180;2024-03-08T01:42:42;25.17;;;17.27;;
46000;SDS011;72226;48.272;11.180;2024-03-08T01:45:07;22.58;;;15.73;;
46000;SDS011;72226;48.272;11.180;2024-03-08T01:47:32;27.63;;;17.90;;
46000;SDS011;72226;48.272;11.180;2024-03-08T01:49:59;25.60;;;18.42;;
46000;SDS011;72226;48.272;11.180;2024-03-08T01:52:26;27.08;;;17.40;;
46000;SDS011;72226;48.272;11.180;2024-03-08T01:54:51;28.90;;;19.02;;
46000;SDS011;72226;48.272;11.180;2024-03-08T01:57:17;25.17;;;17.83;;
46000;SDS011;72226;48.272;11.180;2024-03-08T01:59:42;23.27;;;16.92;;
46000;SDS011;72226;48.272;11.180;2024-03-08T02:02:08;28.00;;;17.23;;
46000;SDS011;72226;48.272;11.180;2024-03-08T02:04:34;30.45;;;18.75;;
46000;SDS011;72226;48.272;11.180;2024-03-08T02:06:59;29.90;;;18.83;;
46000;SDS011;72226;48.272;11.180;2024-03-08T02:09:25;23.20;;;16.85;;
46000;SDS011;72226;48.272;11.180;2024-03-08T02:11:50;24.40;;;17.65;;
46000;SDS011;72226;48.272;11.180;2024-03-08T02:14:16;23.20;;;16.85;;
46000;SDS011;72226;48.272;11.180;2024-03-08T02:16:41;22.60;;;17.33;;
46000;SDS011;72226;48.272;11.180;2024-03-08T02:19:07;27.13;;;17.40;;
46000;SDS011;72226;48.272;11.180;2024-03-08T02:21:34;31.40;;;18.30;;
46000;SDS011;72226;48.272;11.180;2024-03-08T02:24:00;25.33;;;17.42;;
46000;SDS011;72226;48.272;11.180;2024-03-08T02:26:25;26.42;;;17.45;;
46000;SDS011;72226;48.272;11.180;2024-03-08T02:28:50;28.65;;;18.92;;
46000;SDS011;72226;48.272;11.180;2024-03-08T02:31:15;24.23;;;17.40;;
46000;SDS011;72226;48.272;11.180;2024-03-08T02:33:41;31.17;;;18.02;;
46000;SDS011;72226;48.272;11.180;2024-03-08T02:36:06;26.38;;;20.42;;
46000;SDS011;72226;48.272;11.180;2024-03-08T02:38:32;30.02;;;17.58;;
46000;SDS011;72226;48.272;11.180;2024-03-08T02:40:58;27.55;;;17.45;;
46000;SDS011;72226;48.272;11.180;2024-03-08T02:43:23;29.63;;;18.58;;
46000;SDS011;72226;48.272;11.180;2024-03-08T02:45:49;27.35;;;18.75;;
46000;SDS011;72226;48.272;11.180;2024-03-08T02:48:15;23.80;;;17.90;;
46000;SDS011;72226;48.272;11.180;2024-03-08T02:50:41;26.52;;;18.77;;
46000;SDS011;72226;48.272;11.180;2024-03-08T02:53:07;33.53;;;20.40;;
46000;SDS011;72226;48.272;11.180;2024-03-08T02:55:33;35.17;;;20.15;;
46000;SDS011;72226;48.272;11.180;2024-03-08T02:58:01;25.98;;;19.05;;
46000;SDS011;72226;48.272;11.180;2024-03-08T03:00:26;25.30;;;17.88;;
46000;SDS011;72226;48.272;11.180;2024-03-08T03:02:51;27.48;;;18.75;;
46000;SDS011;72226;48.272;11.180;2024-03-08T03:05:20;32.78;;;19.02;;
46000;SDS011;72226;48.272;11.180;2024-03-08T03:07:46;29.65;;;20.80;;
46000;SDS011;72226;48.272;11.180;2024-03-08T03:10:11;27.23;;;18.55;;
46000;SDS011;72226;48.272;11.180;2024-03-08T03:12:37;32.55;;;21.40;;
46000;SDS011;72226;48.272;11.180;2024-03-08T03:15:03;28.27;;;20.02;;
46000;SDS011;72226;48.272;11.180;2024-03-08T03:17:28;35.60;;;20.65;;
46000;SDS011;72226;48.272;11.180;2024-03-08T03:19:53;25.60;;;19.33;;
46000;SDS011;72226;48.272;11.180;2024-03-08T03:22:19;28.13;;;18.77;;
46000;SDS011;72226;48.272;11.180;2024-03-08T03:24:45;29.33;;;22.23;;
46000;SDS011;72226;48.272;11.180;2024-03-08T03:27:11;27.25;;;19.33;;
46000;SDS011;72226;48.272;11.180;2024-03-08T03:29:38;31.58;;;20.58;;
46000;SDS011;72226;48.272;11.180;2024-03-08T03:32:04;30.15;;;19.95;;
46000;SDS011;72226;48.272;11.180;2024-03-08T03:34:30;33.45;;;21.05;;
46000;SDS011;72226;48.272;11.180;2024-03-08T03:36:55;28.90;;;20.73;;
46000;SDS011;72226;48.272;11.180;2024-03-08T03:39:21;27.77;;;21.13;;
46000;SDS011;72226;48.272;11.180;2024-03-08T03:41:47;33.60;;;20.20;;
46000;SDS011;72226;48.272;11.180;2024-03-08T03:44:14;31.35;;;22.35;;
46000;SDS011;72226;48.272;11.180;2024-03-08T03:46:42;32.67;;;21.30;;
46000;SDS011;72226;48.272;11.180;2024-03-08T03:49:10;27.65;;;20.02;;
46000;SDS011;72226;48.272;11.180;2024-03-08T03:51:35;33.75;;;21.90;;
46000;SDS011;72226;48.272;11.180;2024-03-08T03:54:01;29.27;;;18.83;;
46000;SDS011;72226;48.272;11.180;2024-03-08T03:56:28;29.67;;;21.63;;
46000;SDS011;72226;48.272;11.180;2024-03-08T03:58:53;33.80;;;21.33;;
46000;SDS011;72226;48.272;11.180;2024-03-08T04:01:19;31.63;;;20.25;;
46000;SDS011;72226;48.272;11.180;2024-03-08T04:03:44;35.03;;;20.73;;
46000;SDS011;72226;48.272;11.180;2024-03-08T04:06:09;33.13;;;22.55;;
46000;SDS011;72226;48.272;11.180;2024-03-08T04:08:35;38.15;;;23.52;;
46000;SDS011;72226;48.272;11.180;2024-03-08T04:11:00;37.08;;;21.73;;
46000;SDS011;72226;48.272;11.180;2024-03-08T04:13:25;33.92;;;22.23;;
46000;SDS011;72226;48.272;11.180;2024-03-08T04:15:51;36.22;;;21.60;;
46000;SDS011;72226;48.272;11.180;2024-03-08T04:18:16;35.05;;;22.60;;
46000;SDS011;72226;48.272;11.180;2024-03-08T04:20:43;36.00;;;24.10;;
46000;SDS011;72226;48.272;11.180;2024-03-08T04:23:08;34.55;;;23.00;;
46000;SDS011;72226;48.272;11.180;2024-03-08T04:25:33;30.45;;;21.95;;
46000;SDS011;72226;48.272;11.180;2024-03-08T04:27:59;36.50;;;23.48;;
46000;SDS011;72226;48.272;11.180;2024-03-08T04:30:24;37.05;;;23.95;;
46000;SDS011;72226;48.272;11.180;2024-03-08T04:32:49;34.67;;;23.10;;
46000;SDS011;72226;48.272;11.180;2024-03-08T04:35:14;39.00;;;23.83;;
46000;SDS011;72226;48.272;11.180;2024-03-08T04:37:40;36.72;;;23.10;;
46000;SDS011;72226;48.272;11.180;2024-03-08T04:40:05;41.70;;;25.33;;
46000;SDS011;72226;48.272;11.180;2024-03-08T04:42:31;40.78;;;24.98;;
46000;SDS011;72226;48.272;11.180;2024-03-08T04:44:57;34.42;;;23.38;;
46000;SDS011;72226;48.272;11.180;2024-03-08T04:47:23;42.83;;;25.27;;
46000;SDS011;72226;48.272;11.180;2024-03-08T04:49:48;41.13;;;25.95;;
46000;SDS011;72226;48.272;11.180;2024-03-08T04:52:13;42.78;;;26.83;;
46000;SDS011;72226;48.272;11.180;2024-03-08T04:54:38;38.90;;;24.70;;
46000;SDS011;72226;48.272;11.180;2024-03-08T04:57:04;37.95;;;24.65;;
46000;SDS011;72226;48.272;11.180;2024-03-08T04:59:30;38.63;;;24.85;;
46000;SDS011;72226;48.272;11.180;2024-03-08T05:01:55;37.45;;;25.02;;
46000;SDS011;72226;48.272;11.180;2024-03-08T05:04:21;37.90;;;25.65;;
46000;SDS011;72226;48.272;11.180;2024-03-08T05:06:46;39.53;;;26.23;;
46000;SDS011;72226;48.272;11.180;2024-03-08T05:09:11;36.97;;;25.42;;
46000;SDS011;72226;48.272;11.180;2024-03-08T05:11:44;43.75;;;27.27;;
46000;SDS011;72226;48.272;11.180;2024-03-08T05:14:09;34.08;;;25.70;;
46000;SDS011;72226;48.272;11.180;2024-03-08T05:16:35;40.70;;;26.83;;
46000;SDS011;72226;48.272;11.180;2024-03-08T05:19:00;38.88;;;25.95;;
46000;SDS011;72226;48.272;11.180;2024-03-08T05:21:26;39.58;;;27.42;;
46000;SDS011;72226;48.272;11.180;2024-03-08T05:23:51;35.97;;;23.90;;
46000;SDS011;72226;48.272;11.180;2024-03-08T05:26:16;44.17;;;26.70;;
46000;SDS011;72226;48.272;11.180;2024-03-08T05:28:42;41.38;;;26.92;;
46000;SDS011;72226;48.272;11.180;2024-03-08T05:31:07;46.50;;;28.55;;
46000;SDS011;72226;48.272;11.180;2024-03-08T05:33:32;41.50;;;25.55;;
46000;SDS011;72226;48.272;11.180;2024-03-08T05:35:59;44.67;;;27.23;;
46000;SDS011;72226;48.272;11.180;2024-03-08T05:38:25;40.65;;;27.15;;
46000;SDS011;72226;48.272;11.180;2024-03-08T05:40:51;42.70;;;29.02;;
46000;SDS011;72226;48.272;11.180;2024-03-08T05:43:16;44.03;;;27.92;;
46000;SDS011;72226;48.272;11.180;2024-03-08T05:45:44;44.13;;;27.25;;
46000;SDS011;72226;48.272;11.180;2024-03-08T05:48:09;43.20;;;28.63;;
46000;SDS011;72226;48.272;11.180;2024-03-08T05:50:35;40.35;;;25.27;;
46000;SDS011;72226;48.272;11.180;2024-03-08T05:53:00;40.25;;;27.27;;
46000;SDS011;72226;48.272;11.180;2024-03-08T05:55:25;42.15;;;28.08;;
46000;SDS011;72226;48.272;11.180;2024-03-08T05:57:50;45.38;;;28.20;;
46000;SDS011;72226;48.272;11.180;2024-03-08T06:00:16;42.70;;;28.67;;
46000;SDS011;72226;48.272;11.180;2024-03-08T06:02:41;47.72;;;27.98;;
46000;SDS011;72226;48.272;11.180;2024-03-08T06:05:10;47.33;;;29.35;;
46000;SDS011;72226;48.272;11.180;2024-03-08T06:07:36;40.95;;;27.48;;
46000;SDS011;72226;48.272;11.180;2024-03-08T06:10:01;50.20;;;30.77;;
46000;SDS011;72226;48.272;11.180;2024-03-08T06:12:26;52.05;;;30.50;;
46000;SDS011;72226;48.272;11.180;2024-03-08T06:14:54;39.17;;;28.48;;
46000;SDS011;72226;48.272;11.180;2024-03-08T06:17:19;50.60;;;30.33;;
46000;SDS011;72226;48.272;11.180;2024-03-08T06:19:44;44.50;;;29.40;;
46000;SDS011;72226;48.272;11.180;2024-03-08T06:22:09;50.33;;;29.23;;
46000;SDS011;72226;48.272;11.180;2024-03-08T06:24:35;48.10;;;31.00;;
46000;SDS011;72226;48.272;11.180;2024-03-08T06:27:02;47.92;;;31.15;;
46000;SDS011;72226;48.272;11.180;2024-03-08T06:29:27;54.17;;;31.52;;
46000;SDS011;72226;48.272;11.180;2024-03-08T06:31:53;47.15;;;30.52;;
46000;SDS011;72226;48.272;11.180;2024-03-08T06:34:18;48.85;;;31.05;;
46000;SDS011;72226;48.272;11.180;2024-03-08T06:36:43;45.95;;;31.40;;
46000;SDS011;72226;48.272;11.180;2024-03-08T06:39:09;49.58;;;32.55;;
46000;SDS011;72226;48.272;11.180;2024-03-08T06:41:37;47.33;;;30.20;;
46000;SDS011;72226;48.272;11.180;2024-03-08T06:44:02;55.80;;;31.52;;
46000;SDS011;72226;48.272;11.180;2024-03-08T06:46:27;50.25;;;31.77;;
46000;SDS011;72226;48.272;11.180;2024-03-08T06:48:53;53.42;;;33.03;;
46000;SDS011;72226;48.272;11.180;2024-03-08T06:51:18;55.97;;;31.15;;
46000;SDS011;72226;48.272;11.180;2024-03-08T06:53:43;46.83;;;30.60;;
46000;SDS011;72226;48.272;11.180;2024-03-08T06:56:09;49.92;;;32.75;;
46000;SDS011;72226;48.272;11.180;2024-03-08T06:58:34;50.88;;;32.20;;
46000;SDS011;72226;48.272;11.180;2024-03-08T07:00:59;51.28;;;33.08;;
46000;SDS011;72226;48.272;11.180;2024-03-08T07:03:28;59.33;;;33.20;;
46000;SDS011;72226;48.272;11.180;2024-03-08T07:05:54;43.67;;;28.95;;
46000;SDS011;72226;48.272;11.180;2024-03-08T07:08:21;51.88;;;32.35;;
46000;SDS011;72226;48.272;11.180;2024-03-08T07:10:48;46.03;;;30.70;;
46000;SDS011;72226;48.272;11.180;2024-03-08T07:13:14;46.08;;;28.90;;
46000;SDS011;72226;48.272;11.180;2024-03-08T07:15:39;45.25;;;28.80;;
46000;SDS011;72226;48.272;11.180;2024-03-08T07:18:04;48.92;;;32.53;;
46000;SDS011;72226;48.272;11.180;2024-03-08T07:20:30;54.83;;;33.85;;
46000;SDS011;72226;48.272;11.180;2024-03-08T07:22:55;49.17;;;29.70;;
46000;SDS011;72226;48.272;11.180;2024-03-08T07:25:20;51.15;;;31.45;;
46000;SDS011;72226;48.272;11.180;2024-03-08T07:27:55;51.80;;;32.92;;
46000;SDS011;72226;48.272;11.180;2024-03-08T07:30:21;53.53;;;32.65;;
46000;SDS011;72226;48.272;11.180;2024-03-08T07:33:15;50.97;;;29.25;;
46000;SDS011;72226;48.272;11.180;2024-03-08T07:35:40;52.53;;;32.28;;
46000;SDS011;72226;48.272;11.180;2024-03-08T07:38:06;53.75;;;32.28;;
46000;SDS011;72226;48.272;11.180;2024-03-08T07:40:41;52.38;;;32.47;;
46000;SDS011;72226;48.272;11.180;2024-03-08T07:43:09;49.63;;;30.73;;
46000;SDS011;72226;48.272;11.180;2024-03-08T07:45:35;51.95;;;33.08;;
46000;SDS011;72226;48.272;11.180;2024-03-08T07:48:00;52.40;;;30.90;;
46000;SDS011;72226;48.272;11.180;2024-03-08T07:50:27;46.25;;;28.60;;
46000;SDS011;72226;48.272;11.180;2024-03-08T07:52:52;47.45;;;29.13;;
46000;SDS011;72226;48.272;11.180;2024-03-08T07:55:17;51.35;;;31.05;;
46000;SDS011;72226;48.272;11.180;2024-03-08T07:57:42;48.35;;;30.13;;
46000;SDS011;72226;48.272;11.180;2024-03-08T08:00:08;47.15;;;31.42;;
46000;SDS011;72226;48.272;11.180;2024-03-08T08:02:34;49.17;;;29.50;;
46000;SDS011;72226;48.272;11.180;2024-03-08T08:05:00;49.60;;;30.00;;
46000;SDS011;72226;48.272;11.180;2024-03-08T08:07:25;53.63;;;31.60;;
46000;SDS011;72226;48.272;11.180;2024-03-08T08:09:52;49.13;;;30.23;;
46000;SDS011;72226;48.272;11.180;2024-03-08T08:12:17;47.30;;;29.73;;
46000;SDS011;72226;48.272;11.180;2024-03-08T08:14:42;52.65;;;30.23;;
46000;SDS011;72226;48.272;11.180;2024-03-08T08:17:08;49.47;;;32.05;;
46000;SDS011;72226;48.272;11.180;2024-03-08T08:19:34;51.33;;;31.75;;
46000;SDS011;72226;48.272;11.180;2024-03-08T08:22:00;53.55;;;31.52;;
46000;SDS011;72226;48.272;11.180;2024-03-08T08:24:26;50.38;;;31.95;;
46000;SDS011;72226;48.272;11.180;2024-03-08T08:26:52;51.33;;;29.38;;
46000;SDS011;72226;48.272;11.180;2024-03-08T08:29:17;46.00;;;30.67;;
46000;SDS011;72226;48.272;11.180;2024-03-08T08:31:43;44.92;;;27.58;;
46000;SDS011;72226;48.272;11.180;2024-03-08T08:34:10;54.97;;;31.67;;
46000;SDS011;72226;48.272;11.180;2024-03-08T08:36:37;45.42;;;29.08;;
46000;SDS011;72226;48.272;11.180;2024-03-08T08:39:02;46.85;;;28.35;;
46000;SDS011;72226;48.272;11.180;2024-03-08T08:41:28;43.53;;;28.50;;
46000;SDS011;72226;48.272;11.180;2024-03-08T08:43:54;49.45;;;28.40;;
46000;SDS011;72226;48.272;11.180;2024-03-08T08:46:19;51.13;;;28.98;;
46000;SDS011;72226;48.272;11.180;2024-03-08T08:48:46;46.78;;;29.42;;
46000;SDS011;72226;48.272;11.180;2024-03-08T08:51:11;50.08;;;28.65;;
46000;SDS011;72226;48.272;11.180;2024-03-08T08:53:40;47.47;;;30.67;;
46000;SDS011;72226;48.272;11.180;2024-03-08T08:56:11;42.30;;;29.05;;
46000;SDS011;72226;48.272;11.180;2024-03-08T08:58:38;47.35;;;29.13;;
46000;SDS011;72226;48.272;11.180;2024-03-08T09:01:03;46.33;;;27.88;;
46000;SDS011;72226;48.272;11.180;2024-03-08T09:03:30;44.65;;;28.42;;
46000;SDS011;72226;48.272;11.180;2024-03-08T09:05:55;42.05;;;27.38;;
46000;SDS011;72226;48.272;11.180;2024-03-08T09:08:21;44.03;;;27.63;;
46000;SDS011;72226;48.272;11.180;2024-03-08T09:10:46;38.25;;;25.70;;
46000;SDS011;72226;48.272;11.180;2024-03-08T09:13:13;42.45;;;28.05;;
46000;SDS011;72226;48.272;11.180;2024-03-08T09:15:38;43.25;;;26.52;;
46000;SDS011;72226;48.272;11.180;2024-03-08T09:18:05;50.78;;;28.08;;
46000;SDS011;72226;48.272;11.180;2024-03-08T09:20:31;43.63;;;27.85;;
46000;SDS011;72226;48.272;11.180;2024-03-08T09:22:56;45.83;;;29.45;;
46000;SDS011;72226;48.272;11.180;2024-03-08T09:25:22;38.55;;;26.27;;
46000;SDS011;72226;48.272;11.180;2024-03-08T09:27:47;47.03;;;30.23;;
46000;SDS011;72226;48.272;11.180;2024-03-08T09:30:12;44.50;;;29.00;;
46000;SDS011;72226;48.272;11.180;2024-03-08T09:32:38;46.15;;;28.13;;
46000;SDS011;72226;48.272;11.180;2024-03-08T09:35:03;42.20;;;29.33;;
46000;SDS011;72226;48.272;11.180;2024-03-08T09:37:31;43.13;;;27.98;;
46000;SDS011;72226;48.272;11.180;2024-03-08T09:39:57;48.88;;;28.70;;
46000;SDS011;72226;48.272;11.180;2024-03-08T09:42:24;40.15;;;25.58;;
46000;SDS011;72226;48.272;11.180;2024-03-08T09:44:49;35.13;;;22.92;;
46000;SDS011;72226;48.272;11.180;2024-03-08T09:47:14;32.50;;;24.40;;
46000;SDS011;72226;48.272;11.180;2024-03-08T09:49:40;35.53;;;24.17;;
46000;SDS011;72226;48.272;11.180;2024-03-08T09:52:06;37.35;;;25.00;;
46000;SDS011;72226;48.272;11.180;2024-03-08T09:54:32;42.35;;;30.23;;
46000;SDS011;72226;48.272;11.180;2024-03-08T09:56:58;45.03;;;27.25;;
46000;SDS011;72226;48.272;11.180;2024-03-08T09:59:23;39.03;;;27.67;;
46000;SDS011;72226;48.272;11.180;2024-03-08T10:01:48;42.17;;;28.20;;
46000;SDS011;72226;48.272;11.180;2024-03-08T10:04:13;41.75;;;28.33;;
46000;SDS011;72226;48.272;11.180;2024-03-08T10:06:41;37.40;;;26.60;;
46000;SDS011;72226;48.272;11.180;2024-03-08T10:09:06;46.35;;;27.88;;
46000;SDS011;72226;48.272;11.180;2024-03-08T10:11:33;45.10;;;29.20;;
46000;SDS011;72226;48.272;11.180;2024-03-08T10:13:58;46.78;;;29.73;;
46000;SDS011;72226;48.272;11.180;2024-03-08T10:16:25;34.70;;;25.40;;
46000;SDS011;72226;48.272;11.180;2024-03-08T10:18:50;38.78;;;26.35;;
46000;SDS011;72226;48.272;11.180;2024-03-08T10:21:18;43.88;;;30.42;;
46000;SDS011;72226;48.272;11.180;2024-03-08T10:23:44;41.72;;;28.33;;
46000;SDS011;72226;48.272;11.180;2024-03-08T10:26:10;43.90;;;28.15;;
46000;SDS011;72226;48.272;11.180;2024-03-08T10:28:36;40.92;;;27.23;;
46000;SDS011;72226;48.272;11.180;2024-03-08T10:31:01;39.90;;;25.98;;
46000;SDS011;72226;48.272;11.180;2024-03-08T10:33:27;42.70;;;29.13;;
46000;SDS011;72226;48.272;11.180;2024-03-08T10:35:52;45.55;;;28.13;;
46000;SDS011;72226;48.272;11.180;2024-03-08T10:38:18;41.60;;;25.67;;
46000;SDS011;72226;48.272;11.180;2024-03-08T10:40:45;40.65;;;27.33;;
46000;SDS011;72226;48.272;11.180;2024-03-08T10:43:12;37.30;;;28.02;;
46000;SDS011;72226;48.272;11.180;2024-03-08T10:45:41;35.35;;;24.17;;
46000;SDS011;72226;48.272;11.180;2024-03-08T10:48:13;42.65;;;29.08;;
46000;SDS011;72226;48.272;11.180;2024-03-08T10:50:43;34.40;;;24.85;;
46000;SDS011;72226;48.272;11.180;2024-03-08T10:53:12;40.13;;;26.52;;
46000;SDS011;72226;48.272;11.180;2024-03-08T10:55:39;40.58;;;26.92;;
46000;SDS011;72226;48.272;11.180;2024-03-08T10:58:04;40.25;;;25.08;;
46000;SDS011;72226;48.272;11.180;2024-03-08T11:00:30;34.50;;;24.13;;
46000;SDS011;72226;48.272;11.180;2024-03-08T11:02:56;31.55;;;22.08;;
46000;SDS011;72226;48.272;11.180;2024-03-08T11:05:32;35.83;;;23.92;;
46000;SDS011;72226;48.272;11.180;2024-03-08T11:08:00;35.45;;;23.42;;
46000;SDS011;72226;48.272;11.180;2024-03-08T11:10:26;37.72;;;23.83;;
46000;SDS011;72226;48.272;11.180;2024-03-08T11:12:51;34.63;;;26.00;;
46000;SDS011;72226;48.272;11.180;2024-03-08T11:15:17;35.25;;;23.33;;
46000;SDS011;72226;48.272;11.180;2024-03-08T11:17:48;33.42;;;23.55;;
46000;SDS011;72226;48.272;11.180;2024-03-08T11:20:15;32.00;;;21.92;;
46000;SDS011;72226;48.272;11.180;2024-03-08T11:22:53;33.30;;;21.52;;
46000;SDS011;72226;48.272;11.180;2024-03-08T11:25:37;30.80;;;20.13;;
46000;SDS011;72226;48.272;11.180;2024-03-08T11:28:12;31.25;;;22.02;;
46000;SDS011;72226;48.272;11.180;2024-03-08T11:30:44;31.58;;;22.50;;
46000;SDS011;72226;48.272;11.180;2024-03-08T11:33:12;35.17;;;23.95;;
46000;SDS011;72226;48.272;11.180;2024-03-08T11:35:37;31.35;;;21.70;;
46000;SDS011;72226;48.272;11.180;2024-03-08T11:38:03;33.45;;;22.38;;
46000;SDS011;72226;48.272;11.180;2024-03-08T11:40:29;29.35;;;23.15;;
46000;SDS011;72226;48.272;11.180;2024-03-08T11:42:54;33.45;;;22.92;;
46000;SDS011;72226;48.272;11.180;2024-03-08T11:45:20;26.70;;;20.27;;
46000;SDS011;72226;48.272;11.180;2024-03-08T11:47:46;27.23;;;20.55;;
46000;SDS011;72226;48.272;11.180;2024-03-08T11:50:15;28.63;;;21.00;;
46000;SDS011;72226;48.272;11.180;2024-03-08T11:52:40;26.63;;;19.92;;
46000;SDS011;72226;48.272;11.180;2024-03-08T11:55:05;31.70;;;22.23;;
46000;SDS011;72226;48.272;11.180;2024-03-08T11:57:31;33.08;;;23.45;;
46000;SDS011;72226;48.272;11.180;2024-03-08T11:59:57;28.90;;;23.27;;
46000;SDS011;72226;48.272;11.180;2024-03-08T12:02:23;28.25;;;20.70;;
46000;SDS011;72226;48.272;11.180;2024-03-08T12:04:58;30.05;;;20.63;;
46000;SDS011;72226;48.272;11.180;2024-03-08T12:07:24;29.35;;;21.88;;
46000;SDS011;72226;48.272;11.180;2024-03-08T12:12:41;28.92;;;19.67;;
46000;SDS011;72226;48.272;11.180;2024-03-08T12:15:06;30.67;;;20.58;;
46000;SDS011;72226;48.272;11.180;2024-03-08T12:17:33;30.38;;;19.63;;
46000;SDS011;72226;48.272;11.180;2024-03-08T12:20:02;27.33;;;19.90;;
46000;SDS011;72226;48.272;11.180;2024-03-08T12:22:40;27.92;;;19.92;;
46000;SDS011;72226;48.272;11.180;2024-03-08T12:25:06;26.38;;;17.77;;
46000;SDS011;72226;48.272;11.180;2024-03-08T12:27:35;29.45;;;20.10;;
46000;SDS011;72226;48.272;11.180;2024-03-08T12:30:15;26.45;;;18.52;;
46000;SDS011;72226;48.272;11.180;2024-03-08T12:32:40;29.70;;;19.65;;
46000;SDS011;72226;48.272;11.180;2024-03-08T12:35:11;22.02;;;15.82;;
46000;SDS011;72226;48.272;11.180;2024-03-08T12:37:36;28.15;;;18.27;;
46000;SDS011;72226;48.272;11.180;2024-03-08T12:40:02;24.80;;;17.88;;
46000;SDS011;72226;48.272;11.180;2024-03-08T12:42:32;30.27;;;18.35;;
46000;SDS011;72226;48.272;11.180;2024-03-08T12:44:57;28.15;;;17.55;;
46000;SDS011;72226;48.272;11.180;2024-03-08T12:47:24;24.60;;;18.38;;
46000;SDS011;72226;48.272;11.180;2024-03-08T12:49:49;23.67;;;16.95;;
46000;SDS011;72226;48.272;11.180;2024-03-08T12:52:15;22.55;;;17.13;;
46000;SDS011;72226;48.272;11.180;2024-03-08T12:54:43;24.17;;;18.05;;
46000;SDS011;72226;48.272;11.180;2024-03-08T12:57:08;25.08;;;18.40;;
46000;SDS011;72226;48.272;11.180;2024-03-08T12:59:33;25.98;;;18.38;;
46000;SDS011;72226;48.272;11.180;2024-03-08T13:01:59;23.83;;;18.35;;
46000;SDS011;72226;48.272;11.180;2024-03-08T13:04:25;23.60;;;19.45;;
46000;SDS011;72226;48.272;11.180;2024-03-08T13:06:50;21.85;;;16.30;;
46000;SDS011;72226;48.272;11.180;2024-03-08T13:09:16;27.33;;;18.05;;
46000;SDS011;72226;48.272;11.180;2024-03-08T13:11:41;21.02;;;14.70;;
46000;SDS011;72226;48.272;11.180;2024-03-08T13:14:08;26.67;;;17.90;;
46000;SDS011;72226;48.272;11.180;2024-03-08T13:16:35;26.00;;;18.63;;
46000;SDS011;72226;48.272;11.180;2024-03-08T13:19:00;26.30;;;17.35;;
46000;SDS011;72226;48.272;11.180;2024-03-08T13:21:26;25.02;;;17.25;;
46000;SDS011;72226;48.272;11.180;2024-03-08T13:23:51;24.80;;;16.08;;
46000;SDS011;72226;48.272;11.180;2024-03-08T13:26:18;28.25;;;17.95;;
46000;SDS011;72226;48.272;11.180;2024-03-08T13:28:46;21.95;;;15.25;;
46000;SDS011;72226;48.272;11.180;2024-03-08T13:31:13;24.60;;;17.08;;
46000;SDS011;72226;48.272;11.180;2024-03-08T13:33:40;22.85;;;15.60;;
46000;SDS011;72226;48.272;11.180;2024-03-08T13:36:07;26.95;;;16.83;;
46000;SDS011;72226;48.272;11.180;2024-03-08T13:38:39;22.58;;;14.73;;
46000;SDS011;72226;48.272;11.180;2024-03-08T13:41:07;21.23;;;13.75;;
46000;SDS011;72226;48.272;11.180;2024-03-08T13:43:32;22.70;;;15.88;;
46000;SDS011;72226;48.272;11.180;2024-03-08T13:45:59;21.17;;;15.88;;
46000;SDS011;72226;48.272;11.180;2024-03-08T13:48:24;18.35;;;13.52;;
46000;SDS011;72226;48.272;11.180;2024-03-08T13:50:49;20.45;;;14.50;;
46000;SDS011;72226;48.272;11.180;2024-03-08T13:53:15;17.42;;;14.32;;
46000;SDS011;72226;48.272;11.180;2024-03-08T13:55:40;18.42;;;14.00;;
46000;SDS011;72226;48.272;11.180;2024-03-08T13:58:06;17.80;;;13.07;;
46000;SDS011;72226;48.272;11.180;2024-03-08T14:00:34;19.70;;;13.27;;
46000;SDS011;72226;48.272;11.180;2024-03-08T14:03:01;19.02;;;13.18;;
46000;SDS011;72226;48.272;11.180;2024-03-08T14:05:30;19.48;;;13.05;;